Thursday, March 23, 2017, 12:23 AM EDT
Back to Local

KHWV, Shirley Brookhaven Airport

Location: Shirley, NY, United States Lat: 40.817
Local Time: 12:23 AM EDT ( 4:23 GMT) Lon: -72.867
Time Zone: US/Eastern Elev: 82 ft

Show me the last for .
Show Coded

Time T Td Feel RH Dir Speed Gust Alt SLP Vis Weather Sky Remarks
2017-03-22 23:56 23 -5 5 28 340° 18 31 30.42 30.42 10 CLR Peak wind: 31 mph (27 kts) from 340° at 53 min
2017-03-22 22:56 23 -6 7 26 340° 17 25 30.40 30.40 10 CLR Peak wind: 29 mph (26 kts) from 330° at 17 min
2017-03-22 21:56 24 -4 7 28 330° 18 28 30.38 30.38 10 CLR Peak wind: 31 mph (27 kts) from 340° at 37 min
2017-03-22 20:56 25 -3 11 28 330° 15 21 30.34 30.34 10 CLR Peak wind: 36 mph (32 kts) from 330° at 06 min
2017-03-22 19:56 26 -3 10 27 320° 20 29 30.30 30.30 10 CLR Peak wind: 31 mph (27 kts) from 330° at 10 min
6-hr Min Temp (8pm): 26.1°F
6-hr Max Temp (8pm): 35.1°F
2017-03-22 18:56 28 -5 12 22 320° 21 32 30.27 30.27 10 CLR Peak wind: 36 mph (32 kts) from 320° at 02 min
2017-03-22 17:56 30 -5 12 21 320° 30 46 30.22 30.21 10 CLR Peak wind: 46 mph (40 kts) from 310° at 55 min
2017-03-22 16:56 31 -3 15 22 350° 21 33 30.19 30.19 10 CLR Peak wind: 46 mph (40 kts) from 340° at 13 min
2017-03-22 15:56 33 -1 18 22 330° 23 33 30.15 30.16 10 CLR Peak wind: 37 mph (33 kts) from 330° at 10 min
2017-03-22 14:56 33 0 19 23 310° 21 31 30.14 30.14 10 CLR Peak wind: 39 mph (34 kts) from 350° at 17 min
2017-03-22 13:56 34 0 18 22 340° 24 43 30.12 30.12 10 CLR Peak wind: 42 mph (37 kts) from 340° at 42 min
6-hr Min Temp (2pm): 34.0°F
6-hr Max Temp (2pm): 39.9°F
2017-03-22 12:56 35 6 20 29 340° 25 38 30.09 30.09 10 FEW065 Peak wind: 41 mph (36 kts) from 300° at 23 min
2017-03-22 11:56 36 8 21 30 320° 24 39 30.07 30.07 10 CLR Peak wind: 44 mph (39 kts) from 320° at 13 min
2017-03-22 10:56 37 10 22 32 310° 28 47 30.03 30.03 10 CLR Peak wind: 47 mph (41 kts) from 300° at 54 min
2017-03-22 09:56 38 15 24 38 310° 23 38 30.00 30.00 10 FEW050 Peak wind: 40 mph (35 kts) from 330° at 16 min
2017-03-22 08:56 40 20 28 44 320° 21 35 29.96 29.96 10 SCT050 SCT055 Peak wind: 36 mph (32 kts) from 300° at 24 min
2017-03-22 07:56 39 21 27 48 310° 20 29 29.94 29.93 10 CLR Peak wind: 29 mph (26 kts) from 310° at 10 min
6-hr Min Temp (8am): 35.1°F
6-hr Max Temp (8am): 42.1°F
2017-03-22 06:56 38 21 26 50 300° 15 26 29.92 29.92 10 CLR Peak wind: 29 mph (26 kts) from 310° at 34 min
2017-03-22 05:56 41 23 34 48 310° 13 - 29.89 29.88 10 CLR None
2017-03-22 04:56 42 23 33 46 310° 10 21 29.86 29.85 10 CLR None
2017-03-22 03:56 37 30 33 75 270° 5 - 29.85 29.85 10 SCT095 None
2017-03-22 02:56 37 31 - 78 - Calm - 29.85 29.85 10 SCT075 SCT095 None
2017-03-22 01:56 41 33 - 73 - Calm - 29.86 29.86 10 BKN070 OVC085 6-hr Min Temp (2am): 39.9°F
6-hr Max Temp (2am): 44.1°F
2017-03-22 00:56 41 33 - 73 - Calm - 29.86 29.86 10 BKN070 24-hr Min Temp (1am): 33.1°F
24-hr Max Temp (1am): 54.0°F

Support USWX by starting your Amazon purchase here.